SWA1879 KOMA-KDEN
Flight info
| Callsign | SWA1879 |
|---|---|
| Flight time | N/A |
| Altitude | 40000 |
| Route | OBH BRWRY LAWGR4 |
| Aircraft | B38M/M-SADE2E3GHIJ4J7P2RWZ/LB1D1 |
Departure
| Time | 2026-04-21 22:13 |
|---|---|
| Airport | Eppley Airfield (KOMA) |
Arrival
| Time | N/A |
|---|---|
| Airport | Denver International Airport (KDEN) |
| Time | Latitude | Longitude | Altitude | Speed | Heading |
|---|---|---|---|---|---|
| 2026-04-21 22:04 | 41.30199 | -95.89759 | 990 ft | 0 kts | 150° |
| 2026-04-21 22:08 | 41.30197 | -95.89757 | 993 ft | 1 kts | 143° |
| 2026-04-21 22:08 | 41.30164 | -95.89723 | 991 ft | 12 kts | 143° |
| 2026-04-21 22:08 | 41.30075 | -95.89689 | 985 ft | 15 kts | 176° |
| 2026-04-21 22:08 | 41.29965 | -95.89684 | 990 ft | 16 kts | 178° |
| 2026-04-21 22:09 | 41.29856 | -95.89684 | 991 ft | 16 kts | 178° |
| 2026-04-21 22:09 | 41.29754 | -95.89615 | 993 ft | 18 kts | 160° |
| 2026-04-21 22:09 | 41.29627 | -95.89606 | 990 ft | 18 kts | 180° |
| 2026-04-21 22:09 | 41.29501 | -95.89607 | 992 ft | 18 kts | 179° |
| 2026-04-21 22:10 | 41.29368 | -95.89606 | 993 ft | 21 kts | 180° |
| 2026-04-21 22:10 | 41.29221 | -95.89608 | 994 ft | 19 kts | 181° |
| 2026-04-21 22:10 | 41.29124 | -95.89592 | 990 ft | 11 kts | 140° |
| 2026-04-21 22:10 | 41.29108 | -95.89482 | 988 ft | 14 kts | 90° |
| 2026-04-21 22:11 | 41.29108 | -95.89339 | 988 ft | 16 kts | 90° |
| 2026-04-21 22:11 | 41.29108 | -95.89187 | 990 ft | 17 kts | 89° |
| 2026-04-21 22:11 | 41.29108 | -95.89018 | 989 ft | 22 kts | 90° |
| 2026-04-21 22:11 | 41.29155 | -95.88824 | 987 ft | 24 kts | 53° |
| 2026-04-21 22:12 | 41.29243 | -95.88666 | 986 ft | 17 kts | 52° |
| 2026-04-21 22:12 | 41.29330 | -95.88654 | 983 ft | 14 kts | 324° |
| 2026-04-21 22:12 | 41.29484 | -95.88803 | 990 ft | 60 kts | 324° |
| 2026-04-21 22:12 | 41.30049 | -95.89343 | 991 ft | 137 kts | 324° |
| 2026-04-21 22:13 | 41.30974 | -95.90228 | 1202 ft | 178 kts | 323° |
| 2026-04-21 22:13 | 41.31993 | -95.91248 | 1885 ft | 188 kts | 321° |
| 2026-04-21 22:13 | 41.32938 | -95.92218 | 2245 ft | 166 kts | 320° |
| 2026-04-21 22:13 | 41.33837 | -95.93230 | 2916 ft | 182 kts | 312° |
| 2026-04-21 22:14 | 41.34636 | -95.94716 | 3486 ft | 209 kts | 293° |
| 2026-04-21 22:14 | 41.35121 | -95.96621 | 4347 ft | 225 kts | 279° |
| 2026-04-21 22:14 | 41.35143 | -95.98745 | 4889 ft | 240 kts | 253° |
| 2026-04-21 22:14 | 41.34518 | -96.00830 | 5530 ft | 250 kts | 246° |
| 2026-04-21 22:15 | 41.33788 | -96.02955 | 6344 ft | 257 kts | 246° |
| 2026-04-21 22:15 | 41.32977 | -96.05166 | 6881 ft | 274 kts | 246° |
| 2026-04-21 22:15 | 41.32191 | -96.07518 | 7584 ft | 279 kts | 256° |
| 2026-04-21 22:15 | 41.31969 | -96.10056 | 8460 ft | 277 kts | 269° |
| 2026-04-21 22:16 | 41.31932 | -96.11765 | 9001 ft | 280 kts | 270° |
| 2026-04-21 22:16 | 41.31922 | -96.14355 | 9903 ft | 280 kts | 272° |
| 2026-04-21 22:16 | 41.31957 | -96.16988 | 10542 ft | 291 kts | 273° |
| 2026-04-21 22:16 | 41.32019 | -96.19746 | 11024 ft | 305 kts | 273° |
| 2026-04-21 22:17 | 41.32192 | -96.25727 | 12700 ft | 311 kts | 274° |
| 2026-04-21 22:17 | 41.32286 | -96.28618 | 13552 ft | 314 kts | 274° |
| 2026-04-21 22:17 | 41.32383 | -96.31530 | 14388 ft | 316 kts | 274° |
| 2026-04-21 22:18 | 41.32481 | -96.34438 | 15136 ft | 321 kts | 275° |
| 2026-04-21 22:18 | 41.32582 | -96.37424 | 15895 ft | 325 kts | 275° |
| 2026-04-21 22:18 | 41.32684 | -96.40448 | 16640 ft | 329 kts | 275° |
| 2026-04-21 22:18 | 41.32786 | -96.43519 | 17381 ft | 334 kts | 275° |
| 2026-04-21 22:19 | 41.32890 | -96.46620 | 18083 ft | 338 kts | 276° |
| 2026-04-21 22:19 | 41.32993 | -96.49769 | 18683 ft | 343 kts | 275° |
| 2026-04-21 22:19 | 41.33095 | -96.52953 | 19317 ft | 346 kts | 275° |
| 2026-04-21 22:19 | 41.33200 | -96.56160 | 19937 ft | 349 kts | 275° |
| 2026-04-21 22:20 | 41.33304 | -96.59402 | 20526 ft | 352 kts | 275° |
| 2026-04-21 22:20 | 41.33407 | -96.62678 | 21130 ft | 356 kts | 275° |
| 2026-04-21 22:20 | 41.33512 | -96.65981 | 21729 ft | 359 kts | 275° |
| 2026-04-21 22:20 | 41.33615 | -96.69312 | 22314 ft | 362 kts | 275° |
| 2026-04-21 22:21 | 41.33719 | -96.72683 | 22893 ft | 365 kts | 275° |
| 2026-04-21 22:21 | 41.33823 | -96.76070 | 23455 ft | 369 kts | 275° |
| 2026-04-21 22:21 | 41.33928 | -96.79494 | 23913 ft | 372 kts | 275° |
| 2026-04-21 22:21 | 41.34032 | -96.82957 | 24358 ft | 376 kts | 275° |
| 2026-04-21 22:22 | 41.34135 | -96.86451 | 24773 ft | 379 kts | 275° |
| 2026-04-21 22:22 | 41.34240 | -96.89982 | 25192 ft | 383 kts | 275° |
| 2026-04-21 22:22 | 41.34342 | -96.93503 | 25612 ft | 387 kts | 275° |
| 2026-04-21 22:22 | 41.34445 | -96.97104 | 26027 ft | 390 kts | 275° |
| 2026-04-21 22:23 | 41.34548 | -97.00725 | 26448 ft | 394 kts | 275° |
| 2026-04-21 22:23 | 41.34652 | -97.04379 | 26851 ft | 397 kts | 276° |
| 2026-04-21 22:23 | 41.34754 | -97.08064 | 27290 ft | 400 kts | 276° |
| 2026-04-21 22:23 | 41.34856 | -97.11781 | 27708 ft | 402 kts | 276° |
| 2026-04-21 22:24 | 41.34958 | -97.15523 | 28082 ft | 406 kts | 276° |
| 2026-04-21 22:24 | 41.35057 | -97.19248 | 28465 ft | 409 kts | 276° |
| 2026-04-21 22:24 | 41.35158 | -97.23046 | 28845 ft | 412 kts | 276° |
| 2026-04-21 22:24 | 41.35259 | -97.26882 | 29215 ft | 416 kts | 276° |
| 2026-04-21 22:25 | 41.35359 | -97.30741 | 29579 ft | 419 kts | 276° |
| 2026-04-21 22:25 | 41.35458 | -97.34628 | 29937 ft | 422 kts | 276° |
| 2026-04-21 22:25 | 41.35557 | -97.38551 | 30253 ft | 425 kts | 276° |
| 2026-04-21 22:25 | 41.35655 | -97.42491 | 30595 ft | 426 kts | 276° |
| 2026-04-21 22:26 | 41.35752 | -97.46451 | 30927 ft | 428 kts | 276° |
| 2026-04-21 22:26 | 41.35849 | -97.50423 | 31236 ft | 430 kts | 276° |
| 2026-04-21 22:26 | 41.35944 | -97.54414 | 31567 ft | 432 kts | 276° |
| 2026-04-21 22:26 | 41.36038 | -97.58420 | 31891 ft | 434 kts | 276° |
| 2026-04-21 22:27 | 41.36131 | -97.62441 | 32182 ft | 436 kts | 276° |
| 2026-04-21 22:27 | 41.36221 | -97.66430 | 32501 ft | 437 kts | 275° |
| 2026-04-21 22:27 | 41.36313 | -97.70486 | 32819 ft | 439 kts | 275° |
| 2026-04-21 22:27 | 41.36403 | -97.74566 | 33135 ft | 441 kts | 275° |
| 2026-04-21 22:28 | 41.36492 | -97.78650 | 33476 ft | 441 kts | 275° |
| 2026-04-21 22:28 | 41.36579 | -97.82727 | 33917 ft | 440 kts | 275° |
| 2026-04-21 22:28 | 41.36664 | -97.86785 | 34298 ft | 438 kts | 275° |
| 2026-04-21 22:28 | 41.36747 | -97.90836 | 34660 ft | 437 kts | 275° |
| 2026-04-21 22:29 | 41.36830 | -97.94868 | 35022 ft | 435 kts | 275° |
| 2026-04-21 22:29 | 41.36910 | -97.98890 | 35355 ft | 434 kts | 275° |
| 2026-04-21 22:29 | 41.36990 | -98.02904 | 35673 ft | 433 kts | 275° |
| 2026-04-21 22:29 | 41.37067 | -98.06910 | 36011 ft | 432 kts | 275° |